EW8332 Weather Reports


Display with metric or nautical units.
time (UTC)temp
F
wind
direction
speed
MPH
gust
MPH
rain 1hr
in
rain 24hr
in
rain mn
in
humidity
%
barometer
mb
20190421080704 60 250 2.0 5.0 0.00 0.00 0.00 85 972.2
20190421080204 61 192 3.0 7.0 0.00 0.00 0.00 85 972.2
20190421073704 61 233 3.0 6.0 0.00 0.00 0.00 85 972.3
20190421073204 61 212 3.0 12.0 0.00 0.00 0.00 84 972.3
20190421070704 61 193 5.0 10.0 0.00 0.00 0.00 82 972.5
20190421070204 61 186 3.0 9.0 0.00 0.00 0.00 82 972.6
20190421063704 62 229 2.0 6.0 0.00 0.00 0.00 80 972.9
20190421063206 62 215 3.0 13.0 0.00 0.00 0.00 80 973.0
20190421060704 62 193 4.0 9.0 0.00 0.00 0.00 76 973.2
20190421060203 62 197 3.0 12.0 0.00 0.00 0.00 75 973.3
20190421053704 63 209 2.0 6.0 0.00 0.00 0.00 74 973.5
20190421053204 63 181 2.0 9.0 0.00 0.00 0.00 74 973.4
20190421050705 64 204 4.0 9.0 0.00 0.00 0.00 74 973.4
20190421050204 64 217 2.0 12.0 0.00 0.00 0.00 74 973.5
20190421043704 65 193 2.0 9.0 0.00 0.00 0.00 74 973.4
20190421043204 65 184 3.0 8.0 0.00 0.00 0.00 74 973.4
20190421040704 66 187 2.0 7.0 0.00 0.00 0.00 73 973.3
20190421040204 66 159 2.0 7.0 0.00 0.00 0.00 73 973.3
20190421033704 66 187 2.0 5.0 0.00 0.00 0.00 69 973.1
20190421033204 66 155 2.0 7.0 0.00 0.00 0.00 68 973.1
20190421030704 66 168 2.0 3.0 0.00 0.00 0.00 67 972.8
20190421030205 66 168 0.0 3.0 0.00 0.00 0.00 67 972.7
20190421023705 67 166 2.0 3.0 0.00 0.00 0.00 65 972.5
20190421023203 67 165 0.0 3.0 0.00 0.00 0.00 64 972.5
20190421020704 69 174 1.0 3.0 0.00 0.00 0.00 62 972.5
20190421020204 69 162 0.0 3.0 0.00 0.00 0.00 61 972.5
20190421013704 71 153 0.0 0.0 0.00 0.00 0.00 57 972.4
20190421013203 72 153 0.0 2.0 0.00 0.00 0.00 57 972.3
20190421010704 74 153 1.0 3.0 0.00 0.00 0.00 54 972.4
20190421010204 74 153 1.0 6.0 0.00 0.00 0.00 53 972.4
20190421003704 76 159 2.0 5.0 0.00 0.00 0.00 48 972.2
20190421003204 76 156 2.0 9.0 0.00 0.00 0.00 48 972.2
20190421000704 78 157 3.0 10.0 0.00 0.00 0.00 46 972.2
20190421000204 78 163 2.0 12.0 0.00 0.00 0.00 45 972.2
20190420233704 80 169 2.0 6.0 0.00 0.00 0.00 42 972.3
20190420233204 81 200 4.0 10.0 0.00 0.00 0.00 41 972.3
20190420230704 82 200 3.0 10.0 0.00 0.00 0.00 39 972.4
20190420230204 83 160 5.0 12.0 0.00 0.00 0.00 39 972.3
20190420223704 83 196 3.0 6.0 0.00 0.00 0.00 39 972.5
20190420223204 83 212 3.0 8.0 0.00 0.00 0.00 38 972.5
20190420220703 83 214 4.0 7.0 0.00 0.00 0.00 38 973.0
20190420220204 83 184 3.0 10.0 0.00 0.00 0.00 39 973.0
20190420213704 83 186 5.0 10.0 0.00 0.00 0.00 38 973.5
20190420213203 83 205 3.0 10.0 0.00 0.00 0.00 38 973.6
20190420210704 83 214 3.0 10.0 0.00 0.00 0.00 39 974.2
20190420210204 83 206 4.0 10.0 0.00 0.00 0.00 40 974.3
20190420203704 82 206 4.0 7.0 0.00 0.00 0.00 38 974.6
20190420203204 82 225 3.0 12.0 0.00 0.00 0.00 41 974.6
20190420200703 82 236 3.0 5.0 0.00 0.00 0.00 39 975.0
20190420200204 81 154 3.0 14.0 0.00 0.00 0.00 41 975.1
20190420193703 80 195 5.0 12.0 0.00 0.00 0.00 38 975.5
20190420193205 81 231 5.0 12.0 0.00 0.00 0.00 38 975.5
20190420190704 80 215 3.0 8.0 0.00 0.00 0.00 41 975.8
20190420190204 80 237 5.0 12.0 0.00 0.00 0.00 38 976.1
20190420183703 79 185 3.0 7.0 0.00 0.00 0.00 39 976.4
20190420183204 78 231 3.0 14.0 0.00 0.00 0.00 41 976.4
20190420180703 77 170 7.0 14.0 0.00 0.00 0.00 40 976.8
20190420180205 77 193 5.0 16.0 0.00 0.00 0.00 40 976.8
20190420173704 76 221 3.0 9.0 0.00 0.00 0.00 40 977.3
20190420173204 76 194 3.0 14.0 0.00 0.00 0.00 41 977.5
20190420170704 75 230 4.0 10.0 0.00 0.00 0.00 37 977.8
20190420170204 74 172 4.0 12.0 0.00 0.00 0.00 39 977.9
20190420163704 73 222 5.0 9.0 0.00 0.00 0.00 40 978.1
20190420163204 72 158 5.0 12.0 0.00 0.00 0.00 39 978.1
20190420160705 71 215 4.0 7.0 0.00 0.00 0.00 43 978.3
20190420160204 70 156 5.0 9.0 0.00 0.00 0.00 42 978.3
20190420153704 68 175 3.0 6.0 0.00 0.00 0.00 49 978.5
20190420153204 68 231 3.0 10.0 0.00 0.00 0.00 49 978.4
20190420150703 65 222 3.0 8.0 0.00 0.00 0.00 53 978.4
20190420150204 64 214 3.0 7.0 0.00 0.00 0.00 54 978.4
20190420143704 61 240 3.0 5.0 0.00 0.00 0.00 62 978.4
20190420143204 61 218 2.0 7.0 0.00 0.00 0.00 63 978.4
20190420140704 57 184 2.0 5.0 0.00 0.00 0.00 71 978.1
20190420140204 56 205 1.0 3.0 0.00 0.00 0.00 74 978.1
20190420133703 50 49 0.0 0.0 0.00 0.00 0.00 91 978.0
20190420133204 49 323 0.0 0.0 0.00 0.00 0.00 92 977.9
20190420130703 45 346 0.0 0.0 0.00 0.00 0.00 93 977.6
20190420130204 44 346 0.0 0.0 0.00 0.00 0.00 92 977.6
20190420123703 43 346 0.0 0.0 0.00 0.00 0.00 91 977.4
20190420123204 43 346 0.0 0.0 0.00 0.00 0.00 91 977.3
20190420120704 43 346 0.0 0.0 0.00 0.00 0.00 89 977.1
20190420120204 43 346 0.0 0.0 0.00 0.00 0.00 89 977.0
20190420113704 43 346 0.0 0.0 0.00 0.00 0.00 89 976.6
20190420113205 44 346 0.0 0.0 0.00 0.00 0.00 89 976.5
20190420110705 44 346 0.0 0.0 0.00 0.00 0.00 89 976.6
20190420110205 44 346 0.0 0.0 0.00 0.00 0.00 88 976.6
20190420103704 44 346 0.0 0.0 0.00 0.00 0.00 87 976.4
20190420103204 44 346 0.0 0.0 0.00 0.00 0.00 86 976.5
20190420100705 45 346 0.0 0.0 0.00 0.00 0.00 87 976.6
20190420093704 45 346 0.0 0.0 0.00 0.00 0.00 87 976.5
20190420093204 46 346 0.0 0.0 0.00 0.00 0.00 87 976.5
20190420090704 46 346 0.0 0.0 0.00 0.00 0.00 86 976.4
20190420090204 46 346 0.0 0.0 0.00 0.00 0.00 86 976.5
20190420083703 46 346 0.0 0.0 0.00 0.00 0.00 84 976.5
20190420083204 46 346 0.0 2.0 0.00 0.00 0.00 83 976.5